TK6562 / TC-ACR 7700 Squawk Report (30th of September, 2020)

Aircraft B744 Reg No. TC-ACR Age 18 years old
Model 747 Jet engines 4 First flight 30-09-02
Registered 13-06-15 Rollout 08-09-02 Delivered 17-10-02
Construction No. 32866 Line No. 1315 Series 428ERF
ADSHEX 4B8472 Airline name ACT Airlines Owner JLI-I Inc
Airfield based Istanbul-Sabiha Gokcen~Istanbul~TC First tracked N/A

Flight history for TC-ACR

Time Lat Lon Altitude Heading Speed Vertical Rate
2020-09-30 14:44:22 GMT 40.974220 28.822601 0 329 6 0
2020-09-30 14:44:19 GMT 40.974152 28.822647 0 329 6 0
2020-09-30 14:44:05 GMT 40.973888 28.822891 0 351 6 0
2020-09-30 14:43:58 GMT 40.973732 28.822990 0 25 6 0
2020-09-30 14:43:54 GMT 40.973602 28.822975 0 53 6 0
2020-09-30 14:43:46 GMT 40.973511 28.822815 0 59 5 0
2020-09-30 14:43:42 GMT 40.973454 28.822678 0 59 2 0
2020-09-30 14:43:36 GMT 40.973454 28.822662 0 59 2 0
2020-09-30 14:43:27 GMT 40.973431 28.822632 0 59 1 0
2020-09-30 14:43:23 GMT 40.973408 28.822584 0 59 7 0
2020-09-30 14:43:15 GMT 40.973156 28.822021 0 59 24 0
2020-09-30 14:43:07 GMT 40.972618 28.820877 0 59 26 0
2020-09-30 14:43:04 GMT 40.972473 28.820587 0 59 26 0
2020-09-30 14:42:59 GMT 40.972149 28.819870 0 59 25 0
2020-09-30 14:42:56 GMT 40.971985 28.819511 0 59 25 0
2020-09-30 14:42:49 GMT 40.971565 28.818605 0 59 24 0
2020-09-30 14:42:46 GMT 40.971405 28.818253 0 59 23 0
2020-09-30 14:42:35 GMT 40.970810 28.816982 0 59 22 0
2020-09-30 14:42:26 GMT 40.970318 28.815903 0 56 21 0
2020-09-30 14:42:21 GMT 40.970135 28.815521 0 56 20 0
2020-09-30 14:42:15 GMT 40.969856 28.814922 0 59 18 0
2020-09-30 14:42:08 GMT 40.969589 28.814344 0 59 16 0
2020-09-30 14:42:05 GMT 40.969460 28.814056 0 56 14 0
2020-09-30 14:42:01 GMT 40.969357 28.813812 0 42 13 0
2020-09-30 14:41:54 GMT 40.969059 28.813492 0 351 12 0
2020-09-30 14:41:51 GMT 40.968868 28.813486 0 323 12 0
2020-09-30 14:41:44 GMT 40.968613 28.813782 0 275 11 0
2020-09-30 14:41:41 GMT 40.968597 28.813986 0 270 12 0
2020-09-30 14:41:34 GMT 40.968613 28.814470 0 267 11 0
2020-09-30 14:41:31 GMT 40.968624 28.814697 0 267 11 0
2020-09-30 14:41:24 GMT 40.968624 28.815247 0 264 20 0
2020-09-30 14:41:19 GMT 40.968670 28.815798 0 258 25 0
2020-09-30 14:41:13 GMT 40.968876 28.816818 0 244 37 0
2020-09-30 14:41:03 GMT 40.970226 28.819855 0 239 76 0
2020-09-30 14:40:58 GMT 40.971027 28.821564 0 239 84 0
2020-09-30 14:40:52 GMT 40.972347 28.824442 200 239 103 -128
2020-09-30 14:40:46 GMT 40.974106 28.828247 200 239 136 -192
2020-09-30 14:40:42 GMT 40.975372 28.830935 225 239 149 -320
2020-09-30 14:40:30 GMT 40.983658 28.848911 525 239 153 -832
2020-09-30 14:40:21 GMT 40.983101 28.847664 500 239 153 -896
2020-09-30 14:40:11 GMT 40.986732 28.855528 625 239 153 -832
2020-09-30 14:40:02 GMT 40.991043 28.864746 800 239 153 -832
2020-09-30 14:39:53 GMT 40.993652 28.870422 875 239 152 -768
2020-09-30 14:39:50 GMT 40.994659 28.872681 925 239 152 -832
2020-09-30 14:39:36 GMT 40.999649 28.883423 1,125 239 156 -896
2020-09-30 14:39:27 GMT 41.003723 28.892151 1,250 239 161 -832
2020-09-30 14:39:14 GMT 41.008026 28.901489 1,425 239 161 -832
2020-09-30 14:39:09 GMT 41.010239 28.906340 1,500 239 161 -960
2020-09-30 14:38:59 GMT 41.014011 28.914516 1,625 239 162 -896
2020-09-30 14:38:53 GMT 41.016434 28.919762 1,750 239 162 -960
2020-09-30 14:38:43 GMT 41.020435 28.928375 1,875 239 163 -768
2020-09-30 14:38:33 GMT 41.024391 28.937052 2,025 239 170 -896
2020-09-30 14:38:22 GMT 41.028816 28.946478 2,200 239 177 -960
2020-09-30 14:38:11 GMT 41.033569 28.956909 2,400 239 179 -960
2020-09-30 14:38:08 GMT 41.035240 28.960585 2,450 239 179 -960
2020-09-30 14:38:04 GMT 41.037140 28.964722 2,525 239 180 -1088
2020-09-30 14:38:00 GMT 41.038452 28.967451 2,575 239 179 -1280
2020-09-30 14:37:56 GMT 41.040127 28.971197 2,650 239 179 -832
2020-09-30 14:37:53 GMT 41.041763 28.974609 2,700 239 178 -1088
2020-09-30 14:37:50 GMT 41.042862 28.977051 2,750 239 179 -1216
2020-09-30 14:37:46 GMT 41.044373 28.980286 2,850 239 179 -960
2020-09-30 14:37:39 GMT 41.047295 28.986677 2,925 239 178 -1088
2020-09-30 14:37:36 GMT 41.048996 28.990356 3,000 239 180 -896
2020-09-30 14:37:32 GMT 41.050461 28.993483 3,050 239 180 -704
2020-09-30 14:37:27 GMT 41.053116 28.999100 3,100 239 180 -384
2020-09-30 14:37:23 GMT 41.054947 29.003113 3,100 240 180 -64
2020-09-30 14:37:18 GMT 41.057327 29.008301 3,125 240 181 -128
2020-09-30 14:37:15 GMT 41.058189 29.010273 3,125 240 181 -128
2020-09-30 14:37:11 GMT 41.059753 29.013733 3,125 240 180 -64
2020-09-30 14:37:08 GMT 41.061584 29.017944 3,150 239 182 0
2020-09-30 14:37:05 GMT 41.062889 29.020760 3,125 239 183 64
2020-09-30 14:37:00 GMT 41.064514 29.024231 3,125 239 184 128
2020-09-30 14:36:57 GMT 41.065868 29.027189 3,125 239 184 64
2020-09-30 14:36:51 GMT 41.068665 29.033182 3,100 238 186 -64
2020-09-30 14:36:46 GMT 41.071426 29.039001 3,125 239 189 0
2020-09-30 14:36:41 GMT 41.073349 29.043152 3,125 239 188 0
2020-09-30 14:36:37 GMT 41.075508 29.047789 3,125 239 189 64
2020-09-30 14:36:32 GMT 41.077515 29.052185 3,125 239 189 -128
2020-09-30 14:36:28 GMT 41.079117 29.055603 3,125 239 190 0
2020-09-30 14:36:25 GMT 41.080582 29.058714 3,125 239 190 128
2020-09-30 14:36:19 GMT 41.083374 29.064894 3,125 239 189 64
2020-09-30 14:36:16 GMT 41.084724 29.067764 3,100 240 187 0
2020-09-30 14:36:09 GMT 41.087677 29.074341 3,125 240 188 0
2020-09-30 14:36:05 GMT 41.089985 29.079311 3,100 238 190 -128
2020-09-30 14:35:57 GMT 41.093243 29.085993 3,125 237 190 -64
2020-09-30 14:35:54 GMT 41.097290 29.094177 3,125 237 189 64
2020-09-30 14:35:50 GMT 41.097290 29.094177 3,125 237 188 64
2020-09-30 14:35:44 GMT 41.100037 29.099609 3,100 237 186 64
2020-09-30 14:35:39 GMT 41.102051 29.103638 3,125 238 186 -64
2020-09-30 14:35:34 GMT 41.104324 29.108339 3,125 239 187 0
2020-09-30 14:35:30 GMT 41.106583 29.113159 3,125 240 186 -64
2020-09-30 14:35:26 GMT 41.110565 29.122498 3,125 241 186 -64
2020-09-30 14:35:23 GMT 41.110565 29.122498 3,125 243 185 -64
2020-09-30 14:35:19 GMT 41.110931 29.123507 3,125 244 184 -64
2020-09-30 14:35:16 GMT 41.112030 29.126343 3,125 244 184 -64
2020-09-30 14:35:13 GMT 41.113541 29.130375 3,125 243 184 -64
2020-09-30 14:35:10 GMT 41.114365 29.132507 3,125 242 184 0
2020-09-30 14:35:05 GMT 41.116196 29.136902 3,125 241 184 128
2020-09-30 14:35:00 GMT 41.119400 29.144531 3,100 244 185 0
2020-09-30 14:34:54 GMT 41.120522 29.147726 3,100 247 185 64
2020-09-30 14:34:48 GMT 41.122055 29.154785 3,125 262 185 -128
2020-09-30 14:34:45 GMT 41.122200 29.158152 3,125 279 185 -64
2020-09-30 14:34:41 GMT 41.121872 29.162415 3,125 285 186 64
2020-09-30 14:34:38 GMT 41.120708 29.168139 3,125 289 187 0
2020-09-30 14:34:34 GMT 41.120132 29.170410 3,125 289 187 0
2020-09-30 14:34:31 GMT 41.119308 29.173584 3,125 289 187 0
2020-09-30 14:34:26 GMT 41.117844 29.179321 3,125 289 186 64
2020-09-30 14:34:23 GMT 41.117123 29.182060 3,125 289 186 0
2020-09-30 14:34:19 GMT 41.115074 29.190237 3,125 289 186 0
2020-09-30 14:34:16 GMT 41.114006 29.194420 3,125 289 187 0
2020-09-30 14:34:08 GMT 41.112934 29.198540 3,125 289 187 0
2020-09-30 14:34:05 GMT 41.110794 29.207153 3,125 289 187 -64
2020-09-30 14:34:01 GMT 41.109348 29.212833 3,125 289 187 0
2020-09-30 14:33:56 GMT 41.108746 29.215080 3,125 289 186 0
2020-09-30 14:33:50 GMT 41.107910 29.218384 3,125 289 186 0
2020-09-30 14:33:47 GMT 41.107254 29.221073 3,125 289 186 -64
2020-09-30 14:33:43 GMT 41.105675 29.227127 3,125 289 186 0
2020-09-30 14:33:37 GMT 41.104183 29.232996 3,125 289 185 64
2020-09-30 14:33:32 GMT 41.102646 29.238989 3,125 289 186 64
2020-09-30 14:33:27 GMT 41.101578 29.243296 3,100 289 188 64
2020-09-30 14:33:20 GMT 41.099350 29.252075 3,125 289 195 0
2020-09-30 14:33:17 GMT 41.098663 29.254700 3,125 289 196 64
2020-09-30 14:33:12 GMT 41.096329 29.263672 3,125 289 197 -64
2020-09-30 14:33:09 GMT 41.096329 29.263672 3,125 289 197 64
2020-09-30 14:33:03 GMT 41.094501 29.270824 3,100 289 197 192
2020-09-30 14:32:59 GMT 41.093334 29.275318 3,100 289 198 -384
2020-09-30 14:32:56 GMT 41.092453 29.278627 3,150 289 198 -512
2020-09-30 14:32:48 GMT 41.090122 29.287804 3,200 289 197 -448
2020-09-30 14:32:45 GMT 41.089371 29.290710 3,225 289 197 -448
2020-09-30 14:32:41 GMT 41.087749 29.297167 3,275 289 197 -448
2020-09-30 14:32:35 GMT 41.086441 29.302307 3,300 289 196 -448
2020-09-30 14:32:30 GMT 41.084816 29.308590 3,350 289 195 -512
2020-09-30 14:32:26 GMT 41.083515 29.313707 3,400 289 194 -512
2020-09-30 14:32:18 GMT 41.081371 29.322010 3,475 289 195 -832
2020-09-30 14:32:15 GMT 41.080490 29.325500 3,525 289 194 -960
2020-09-30 14:32:08 GMT 41.078293 29.333984 3,650 289 193 -1024
2020-09-30 14:32:05 GMT 41.077602 29.336679 3,675 289 193 -1024
2020-09-30 14:31:58 GMT 41.075413 29.345230 3,900 289 192 -960
2020-09-30 14:31:55 GMT 41.074677 29.348083 3,850 289 193 -896
2020-09-30 14:31:47 GMT 41.072433 29.356750 3,975 289 193 -1024
2020-09-30 14:31:44 GMT 41.071655 29.359741 4,025 289 193 -1024
2020-09-30 14:31:41 GMT 41.070805 29.363085 4,075 289 194 -960
2020-09-30 14:31:36 GMT 41.069275 29.369019 4,150 289 193 -960
2020-09-30 14:31:33 GMT 41.068588 29.371643 4,200 289 193 -832
2020-09-30 14:31:27 GMT 41.066483 29.379883 4,300 289 194 -1472
2020-09-30 14:31:23 GMT 41.065639 29.383059 4,375 289 194 -1664
2020-09-30 14:31:17 GMT 41.063644 29.390869 4,700 289 195 -1280
2020-09-30 14:31:14 GMT 41.062798 29.394234 4,625 289 194 -1344
2020-09-30 14:31:06 GMT 41.058472 29.410828 4,850 289 197 -1216
2020-09-30 14:31:01 GMT 41.058472 29.410828 4,950 289 199 -1152
2020-09-30 14:30:56 GMT 41.057491 29.414583 5,000 289 200 -1152
2020-09-30 14:30:52 GMT 41.054420 29.426693 5,250 289 203 -1408
2020-09-30 14:30:46 GMT 41.054420 29.426693 5,200 289 203 -1408
2020-09-30 14:30:42 GMT 41.053574 29.429932 5,275 289 204 -1472
2020-09-30 14:30:35 GMT 41.051346 29.438679 5,650 289 204 -1472
2020-09-30 14:30:32 GMT 41.050507 29.442078 5,525 289 204 -1472
2020-09-30 14:30:25 GMT 41.047302 29.454590 5,775 289 204 -1536
2020-09-30 14:30:14 GMT 41.044968 29.463562 6,000 289 204 -1664
2020-09-30 14:30:11 GMT 41.044189 29.466736 6,075 289 204 -1600
2020-09-30 14:30:05 GMT 41.041897 29.475632 6,250 289 204 -1472
2020-09-30 14:30:02 GMT 41.041103 29.478689 6,325 289 204 -1408
2020-09-30 14:29:54 GMT 41.038776 29.487741 6,475 290 207 -1088
2020-09-30 14:29:51 GMT 41.037800 29.491425 6,525 290 209 -896
2020-09-30 14:29:43 GMT 41.034439 29.504089 6,650 290 216 -832
2020-09-30 14:29:34 GMT 41.032074 29.513023 6,775 290 222 -896
2020-09-30 14:29:31 GMT 41.031097 29.516768 6,800 290 224 -960
2020-09-30 14:29:23 GMT 41.028488 29.526693 6,950 289 228 -1152
2020-09-30 14:29:20 GMT 41.027466 29.530687 7,000 289 230 -1216
2020-09-30 14:29:12 GMT 41.024857 29.540676 7,175 289 233 -1408
2020-09-30 14:29:09 GMT 41.023865 29.544495 7,225 289 233 -1536
2020-09-30 14:29:02 GMT 41.021301 29.554321 7,450 289 234 -1792
2020-09-30 14:28:59 GMT 41.020065 29.559204 7,550 289 234 -1792
2020-09-30 14:28:53 GMT 41.017685 29.568420 7,750 289 234 -1856
2020-09-30 14:28:48 GMT 41.016449 29.573181 7,850 289 234 -1856
2020-09-30 14:28:42 GMT 41.014153 29.582188 8,075 289 234 -1728
2020-09-30 14:28:39 GMT 41.012375 29.588928 8,200 290 235 -1600
2020-09-30 14:28:32 GMT 41.010544 29.596008 8,325 290 237 -1408
2020-09-30 14:28:27 GMT 41.008759 29.602783 8,425 290 239 -1088
2020-09-30 14:28:21 GMT 41.006702 29.610588 8,525 290 243 -960
2020-09-30 14:28:17 GMT 41.004047 29.620514 8,575 290 245 -896
2020-09-30 14:28:12 GMT 41.002934 29.624884 8,675 290 252 -832
2020-09-30 14:28:08 GMT 41.001766 29.629253 8,725 290 253 -896
2020-09-30 14:28:03 GMT 40.999302 29.638554 8,825 289 261 -960
2020-09-30 14:28:00 GMT 40.998596 29.641296 8,850 289 261 -960
2020-09-30 14:27:53 GMT 40.993744 29.660217 9,075 289 264 -1664
2020-09-30 14:27:48 GMT 40.993744 29.660217 9,125 289 264 -1792
2020-09-30 14:27:40 GMT 40.989571 29.676695 9,525 289 265 -2432
2020-09-30 14:27:27 GMT 40.985615 29.692301 9,950 289 265 -2368
2020-09-30 14:27:19 GMT 40.982574 29.704285 10,200 289 267 -2304
2020-09-30 14:27:16 GMT 40.981331 29.709028 10,300 289 267 -2304
2020-09-30 14:27:09 GMT 40.978725 29.719015 10,575 290 270 -1984
2020-09-30 14:27:06 GMT 40.977421 29.723948 10,700 290 272 -1792
2020-09-30 14:26:56 GMT 40.970627 29.749914 10,900 289 277 -1344
2020-09-30 14:26:48 GMT 40.969742 29.753349 11,100 290 287 -1408
2020-09-30 14:26:45 GMT 40.968761 29.757156 11,150 290 289 -1408
2020-09-30 14:26:36 GMT 40.964172 29.774353 11,350 290 299 -640
2020-09-30 14:26:29 GMT 40.960663 29.787868 11,450 290 303 -640
2020-09-30 14:26:25 GMT 40.959454 29.792425 11,575 290 308 -960
2020-09-30 14:26:18 GMT 40.956192 29.804909 11,575 290 308 -1024
2020-09-30 14:26:14 GMT 40.954613 29.810902 11,650 290 309 -1088
2020-09-30 14:26:08 GMT 40.951584 29.822449 11,775 290 312 -1088
2020-09-30 14:26:05 GMT 40.949661 29.829773 11,825 290 313 -1216
2020-09-30 14:25:58 GMT 40.946556 29.841490 11,975 290 315 -1152
2020-09-30 14:25:54 GMT 40.944946 29.847717 12,025 290 316 -960
2020-09-30 14:25:50 GMT 40.941574 29.860590 12,100 290 318 -448
2020-09-30 14:25:44 GMT 40.939911 29.866821 12,125 290 319 -256
2020-09-30 14:25:37 GMT 40.936687 29.879129 12,100 290 321 64
2020-09-30 14:25:33 GMT 40.934875 29.886047 12,100 290 321 64
2020-09-30 14:25:27 GMT 40.931660 29.898106 12,100 290 319 -64
2020-09-30 14:25:24 GMT 40.930023 29.904358 12,125 290 320 -64
2020-09-30 14:25:17 GMT 40.926399 29.918144 12,100 290 322 64
2020-09-30 14:25:13 GMT 40.924957 29.923637 12,100 290 322 -64
2020-09-30 14:25:06 GMT 40.921326 29.937244 12,125 290 322 0
2020-09-30 14:25:02 GMT 40.919418 29.944548 12,125 290 321 128
2020-09-30 14:24:56 GMT 40.916531 29.955536 12,100 290 322 0
2020-09-30 14:24:52 GMT 40.914391 29.963526 12,100 290 324 0
2020-09-30 14:24:46 GMT 40.911163 29.975708 12,100 290 325 0
2020-09-30 14:24:42 GMT 40.909733 29.981190 12,125 290 325 -64
2020-09-30 14:24:35 GMT 40.906197 29.994673 12,125 290 322 64
2020-09-30 14:24:32 GMT 40.904663 30.000488 12,100 290 321 64
2020-09-30 14:24:24 GMT 40.900635 30.015625 12,100 290 321 0
2020-09-30 14:24:21 GMT 40.898712 30.023010 12,100 290 320 0
2020-09-30 14:24:15 GMT 40.895908 30.033501 12,100 290 321 -64
2020-09-30 14:24:11 GMT 40.894371 30.039181 12,125 290 321 -64
2020-09-30 14:24:05 GMT 40.890839 30.052673 12,100 290 320 64
2020-09-30 14:24:01 GMT 40.889511 30.057556 12,100 290 320 0
2020-09-30 14:23:54 GMT 40.885059 30.074511 12,125 290 321 -64
2020-09-30 14:23:50 GMT 40.884361 30.077133 12,125 290 321 -64
2020-09-30 14:23:41 GMT 40.879337 30.096296 12,125 290 320 0
2020-09-30 14:23:33 GMT 40.875870 30.109192 12,100 290 320 0
2020-09-30 14:23:30 GMT 40.874310 30.115086 12,100 290 320 -64
2020-09-30 14:23:23 GMT 40.870724 30.128508 12,125 290 320 0
2020-09-30 14:23:20 GMT 40.869370 30.133606 12,100 290 321 0
2020-09-30 14:23:12 GMT 40.865387 30.148743 12,125 290 323 64
2020-09-30 14:23:08 GMT 40.862949 30.157845 12,125 290 323 64
2020-09-30 14:23:03 GMT 40.860947 30.165344 12,100 290 324 0
2020-09-30 14:22:58 GMT 40.858761 30.173576 12,100 290 323 -64
2020-09-30 14:22:52 GMT 40.855499 30.185873 12,125 290 321 0
2020-09-30 14:22:48 GMT 40.854012 30.191490 12,125 290 321 64
2020-09-30 14:22:41 GMT 40.850056 30.206285 12,100 290 319 -64
2020-09-30 14:22:38 GMT 40.849075 30.210093 12,100 290 317 0
2020-09-30 14:22:32 GMT 40.846024 30.221558 12,100 290 319 0
2020-09-30 14:22:29 GMT 40.844048 30.228945 12,125 290 319 -64
2020-09-30 14:22:22 GMT 40.840805 30.241089 12,125 290 320 0
2020-09-30 14:22:18 GMT 40.838882 30.248230 12,125 290 320 0
2020-09-30 14:22:12 GMT 40.835403 30.261230 12,125 290 320 0
2020-09-30 14:22:07 GMT 40.833855 30.267084 12,125 290 320 0
2020-09-30 14:21:58 GMT 40.828949 30.285522 12,125 290 320 0
2020-09-30 14:21:51 GMT 40.825516 30.298279 12,100 290 318 64
2020-09-30 14:21:47 GMT 40.823822 30.304749 12,100 290 318 0
2020-09-30 14:21:36 GMT 40.818680 30.324139 12,100 290 320 64
2020-09-30 14:21:32 GMT 40.816177 30.333557 12,100 290 321 -64
2020-09-30 14:21:26 GMT 40.813797 30.342529 12,100 290 321 -128
2020-09-30 14:21:22 GMT 40.811554 30.350769 12,125 290 321 128
2020-09-30 14:21:19 GMT 40.810226 30.355652 12,125 290 321 128
2020-09-30 14:21:16 GMT 40.808250 30.362965 12,100 290 321 0
2020-09-30 14:21:09 GMT 40.805271 30.374014 12,125 290 321 -64
2020-09-30 14:21:06 GMT 40.803551 30.380507 12,125 290 320 0
2020-09-30 14:20:59 GMT 40.800385 30.392334 12,125 290 319 64
2020-09-30 14:20:55 GMT 40.798428 30.399607 12,100 290 320 64
2020-09-30 14:20:50 GMT 40.795307 30.411406 12,100 290 320 -64
2020-09-30 14:20:44 GMT 40.792419 30.422119 12,125 290 321 -64
2020-09-30 14:20:35 GMT 40.788372 30.437185 12,100 290 324 0
2020-09-30 14:20:25 GMT 40.783173 30.456360 12,100 290 324 0
2020-09-30 14:20:20 GMT 40.780426 30.466614 12,125 290 324 -64
2020-09-30 14:20:14 GMT 40.777851 30.476074 12,125 290 323 -64
2020-09-30 14:20:05 GMT 40.772919 30.494490 12,100 290 321 0
2020-09-30 14:19:54 GMT 40.767838 30.513245 12,125 290 318 -64
2020-09-30 14:19:44 GMT 40.762802 30.531921 12,125 290 317 0
2020-09-30 14:19:37 GMT 40.758904 30.546425 12,100 290 319 64
2020-09-30 14:19:33 GMT 40.757370 30.551979 12,100 290 319 0
2020-09-30 14:19:26 GMT 40.753925 30.564775 12,125 290 318 -64
2020-09-30 14:19:23 GMT 40.752666 30.569521 12,125 290 318 64
2020-09-30 14:19:13 GMT 40.747452 30.588871 12,100 290 318 0
2020-09-30 14:19:03 GMT 40.742569 30.606995 12,125 290 318 -64
2020-09-30 14:19:00 GMT 40.740704 30.613840 12,125 290 317 0
2020-09-30 14:18:53 GMT 40.737305 30.626404 12,100 290 317 -64
2020-09-30 14:18:45 GMT 40.733917 30.638916 12,100 290 319 0
2020-09-30 14:18:42 GMT 40.732277 30.644989 12,100 290 320 0
2020-09-30 14:18:35 GMT 40.728924 30.657349 12,125 290 321 0
2020-09-30 14:18:32 GMT 40.727188 30.663696 12,125 290 322 -64
2020-09-30 14:18:25 GMT 40.723251 30.678040 12,100 290 321 -128
2020-09-30 14:18:22 GMT 40.721897 30.683067 12,125 290 321 -64
2020-09-30 14:18:14 GMT 40.718124 30.696838 12,100 290 323 0
2020-09-30 14:18:11 GMT 40.716843 30.701538 12,100 290 323 -128
2020-09-30 14:18:03 GMT 40.712585 30.717224 12,125 290 321 64
2020-09-30 14:18:00 GMT 40.711143 30.722580 12,100 290 320 64
2020-09-30 14:17:53 GMT 40.707138 30.737305 12,125 290 319 0
2020-09-30 14:17:50 GMT 40.706451 30.739868 12,125 290 318 64
2020-09-30 14:17:45 GMT 40.700821 30.760437 12,125 290 317 0
2020-09-30 14:17:40 GMT 40.700821 30.760437 12,125 290 317 0
2020-09-30 14:17:33 GMT 40.696152 30.777527 12,125 290 319 0
2020-09-30 14:17:30 GMT 40.696152 30.777527 12,125 290 318 0
2020-09-30 14:17:20 GMT 40.691208 30.795715 12,100 290 319 -64
2020-09-30 14:17:17 GMT 40.689789 30.801086 12,100 290 319 -64
2020-09-30 14:17:10 GMT 40.685898 30.815491 12,125 290 319 0
2020-09-30 14:17:04 GMT 40.682747 30.827074 12,100 290 319 0
2020-09-30 14:16:59 GMT 40.680931 30.833693 12,125 290 319 -64
2020-09-30 14:16:55 GMT 40.678928 30.841059 12,125 290 319 -64
2020-09-30 14:16:48 GMT 40.675625 30.853043 12,125 290 319 64
2020-09-30 14:16:45 GMT 40.673492 30.860962 12,100 290 318 64
2020-09-30 14:16:36 GMT 40.669006 30.877258 12,125 290 318 -64
2020-09-30 14:16:27 GMT 40.665070 30.891541 12,125 290 318 64
2020-09-30 14:16:23 GMT 40.663101 30.898861 12,100 290 319 0
2020-09-30 14:16:18 GMT 40.660213 30.909410 12,100 290 319 -64
2020-09-30 14:16:11 GMT 40.656910 30.921520 12,100 290 319 0
2020-09-30 14:16:06 GMT 40.654587 30.930115 12,100 290 319 0
2020-09-30 14:16:01 GMT 40.651749 30.940552 12,125 290 319 -64
2020-09-30 14:15:55 GMT 40.647812 30.954834 12,125 290 319 0
2020-09-30 14:15:51 GMT 40.646759 30.958740 12,125 290 319 0
2020-09-30 14:15:45 GMT 40.643921 30.969023 12,125 290 319 64
2020-09-30 14:15:42 GMT 40.642479 30.974266 12,100 290 319 64
2020-09-30 14:15:35 GMT 40.638939 30.987312 12,100 290 320 -64
2020-09-30 14:15:25 GMT 40.633942 31.005493 12,125 290 316 0
2020-09-30 14:15:15 GMT 40.628883 31.023954 12,100 290 315 -64
2020-09-30 14:15:04 GMT 40.623642 31.042969 12,100 290 316 128
2020-09-30 14:14:54 GMT 40.618595 31.061472 12,125 290 317 -128
2020-09-30 14:14:48 GMT 40.615665 31.072269 12,125 290 318 128
2020-09-30 14:14:44 GMT 40.613384 31.080759 12,125 290 318 128
2020-09-30 14:14:33 GMT 40.608032 31.100464 12,100 290 317 -64
2020-09-30 14:14:24 GMT 40.603931 31.115341 12,125 291 317 0
2020-09-30 14:14:20 GMT 40.601669 31.123352 12,125 291 317 0
2020-09-30 14:14:12 GMT 40.597778 31.137939 12,125 289 316 0
2020-09-30 14:14:02 GMT 40.593704 31.155762 12,125 286 314 -192
2020-09-30 14:13:52 GMT 40.590153 31.175142 12,100 283 314 128
2020-09-30 14:13:41 GMT 40.587452 31.195805 12,125 278 319 0
2020-09-30 14:13:31 GMT 40.585648 31.214661 12,125 278 319 64
2020-09-30 14:13:21 GMT 40.583870 31.234068 12,125 278 320 -192
2020-09-30 14:13:11 GMT 40.581959 31.254293 12,100 278 316 64
2020-09-30 14:13:00 GMT 40.580063 31.274292 12,100 277 314 0
2020-09-30 14:12:49 GMT 40.578049 31.295616 12,100 278 313 128
2020-09-30 14:12:40 GMT 40.576492 31.312500 12,125 278 315 -192
2020-09-30 14:12:30 GMT 40.574604 31.332134 12,100 278 316 0
2020-09-30 14:12:19 GMT 40.572697 31.351984 12,125 278 316 64
2020-09-30 14:12:08 GMT 40.570694 31.372646 12,125 278 314 0
2020-09-30 14:11:58 GMT 40.568939 31.391235 12,100 278 311 192
2020-09-30 14:11:48 GMT 40.567017 31.411316 12,075 278 315 -64
2020-09-30 14:11:36 GMT 40.564865 31.432861 12,075 278 319 192
2020-09-30 14:11:27 GMT 40.562988 31.451965 12,050 278 318 64
2020-09-30 14:11:16 GMT 40.561058 31.471710 12,025 278 315 192
2020-09-30 14:11:05 GMT 40.559055 31.492373 12,000 278 313 0
2020-09-30 14:10:56 GMT 40.557285 31.510662 12,000 278 315 -64
2020-09-30 14:10:45 GMT 40.555378 31.530325 12,000 277 316 128
2020-09-30 14:10:34 GMT 40.553375 31.551758 12,000 277 317 0
2020-09-30 14:10:24 GMT 40.551590 31.571350 12,000 278 319 0
2020-09-30 14:10:13 GMT 40.549713 31.591797 12,000 277 319 0
2020-09-30 14:10:03 GMT 40.548157 31.611084 12,025 276 316 0
2020-09-30 14:09:53 GMT 40.546673 31.630262 12,000 276 315 0
2020-09-30 14:09:42 GMT 40.545277 31.650925 12,000 275 315 -64
2020-09-30 14:09:32 GMT 40.544403 31.669983 12,000 273 316 64
2020-09-30 14:09:23 GMT 40.544022 31.688940 12,000 270 317 64
2020-09-30 14:09:11 GMT 40.544357 31.710327 12,000 267 315 0
2020-09-30 14:09:01 GMT 40.545273 31.729187 12,000 267 313 0
2020-09-30 14:08:51 GMT 40.545547 31.749146 12,000 276 316 -128
2020-09-30 14:08:39 GMT 40.542763 31.772085 12,000 284 317 64
2020-09-30 14:08:30 GMT 40.539047 31.787659 12,000 293 315 -192
2020-09-30 14:08:20 GMT 40.533234 31.805908 12,000 292 318 0
2020-09-30 14:08:10 GMT 40.528286 31.824333 12,000 286 318 128
2020-09-30 14:07:59 GMT 40.524948 31.844543 12,000 279 315 64
2020-09-30 14:07:49 GMT 40.522888 31.864258 12,000 278 316 128
2020-09-30 14:07:39 GMT 40.521069 31.882761 12,025 278 319 64
2020-09-30 14:07:27 GMT 40.518723 31.906372 12,000 278 320 -64
2020-09-30 14:07:18 GMT 40.517067 31.922836 11,975 278 317 64
2020-09-30 14:07:07 GMT 40.514877 31.944559 12,000 278 320 64
2020-09-30 14:06:57 GMT 40.512909 31.964478 12,000 278 316 64
We lost coverage of the aircraft here for a total of 32 minutes
2020-09-30 13:35:04 GMT 40.300598 34.244884 35,000 101 558 0
2020-09-30 13:34:46 GMT 40.310257 34.183594 35,000 101 559 0
2020-09-30 13:34:32 GMT 40.317169 34.139641 35,000 101 559 0
2020-09-30 13:34:24 GMT 40.321609 34.111145 35,000 101 559 0
2020-09-30 13:34:12 GMT 40.327560 34.073364 35,000 101 560 0
2020-09-30 13:33:59 GMT 40.334255 34.030338 35,000 101 560 0
2020-09-30 13:33:51 GMT 40.338409 34.003845 35,000 101 559 0
2020-09-30 13:33:45 GMT 40.341522 33.983826 35,000 101 559 -64
2020-09-30 13:33:34 GMT 40.347198 33.947567 35,000 101 559 -64
2020-09-30 13:32:45 GMT 40.372604 33.783813 35,000 101 558 0
2020-09-30 13:32:39 GMT 40.375580 33.764343 35,000 101 556 0
2020-09-30 13:32:29 GMT 40.380573 33.731960 35,000 101 555 0
2020-09-30 13:32:21 GMT 40.384644 33.705444 35,000 101 555 0
2020-09-30 13:32:09 GMT 40.390640 33.666504 35,000 101 554 0
2020-09-30 13:31:42 GMT 40.404190 33.577454 35,000 101 554 0
2020-09-30 13:31:38 GMT 40.406040 33.565292 35,000 101 554 0
2020-09-30 13:31:13 GMT 40.418747 33.481209 35,000 101 554 0
2020-09-30 13:31:07 GMT 40.421589 33.462357 35,000 101 554 -64
2020-09-30 13:30:54 GMT 40.428040 33.419617 35,000 101 555 -64
2020-09-30 13:30:46 GMT 40.431923 33.393757 35,000 101 555 0
2020-09-30 13:30:36 GMT 40.436966 33.360046 35,000 101 554 64
2020-09-30 13:30:21 GMT 40.444492 33.309860 35,000 101 554 0
2020-09-30 13:30:14 GMT 40.447678 33.288452 35,000 101 555 0
2020-09-30 13:30:04 GMT 40.452576 33.255615 35,000 101 555 -64
2020-09-30 13:29:55 GMT 40.457527 33.222717 35,000 101 556 -64
2020-09-30 13:29:45 GMT 40.462322 33.190384 35,025 100 556 0
2020-09-30 13:29:35 GMT 40.467178 33.157776 35,000 100 556 0
2020-09-30 13:29:22 GMT 40.473309 33.116287 35,000 100 556 64
2020-09-30 13:29:14 GMT 40.477386 33.088745 34,975 100 556 0
2020-09-30 13:29:04 GMT 40.482468 33.054321 35,000 100 556 0
2020-09-30 13:28:53 GMT 40.487457 33.020569 35,000 100 556 0
2020-09-30 13:28:43 GMT 40.493137 32.982018 35,000 100 556 0
2020-09-30 13:28:31 GMT 40.498119 32.947872 35,000 100 556 0
2020-09-30 13:28:17 GMT 40.504868 32.901680 35,000 100 556 -64
2020-09-30 13:28:11 GMT 40.508148 32.879456 35,000 100 556 0
2020-09-30 13:28:00 GMT 40.513092 32.845337 35,000 100 556 0
2020-09-30 13:27:50 GMT 40.518139 32.810356 35,000 100 556 0
2020-09-30 13:27:40 GMT 40.522839 32.777523 35,000 100 555 0
2020-09-30 13:27:29 GMT 40.528107 32.741089 35,000 100 555 0
2020-09-30 13:27:15 GMT 40.534607 32.695862 35,000 100 555 0
2020-09-30 13:27:05 GMT 40.539597 32.660645 35,000 100 555 0
2020-09-30 13:26:57 GMT 40.543121 32.635986 35,000 100 555 0
2020-09-30 13:26:48 GMT 40.547379 32.606079 35,000 100 555 -64
2020-09-30 13:26:34 GMT 40.554016 32.559326 35,000 100 555 0
2020-09-30 13:26:28 GMT 40.557083 32.537720 35,000 100 555 0
2020-09-30 13:26:17 GMT 40.562080 32.502365 35,000 100 555 0
2020-09-30 13:26:05 GMT 40.567612 32.462952 35,000 100 555 0
2020-09-30 13:25:56 GMT 40.571999 32.431828 35,000 100 555 0
2020-09-30 13:25:46 GMT 40.576279 32.401302 35,000 100 555 0
2020-09-30 13:25:35 GMT 40.581345 32.365112 35,000 100 554 0
2020-09-30 13:25:25 GMT 40.586014 32.331909 35,000 100 554 0
2020-09-30 13:25:15 GMT 40.595459 32.264160 35,000 100 554 0
2020-09-30 13:25:05 GMT 40.595459 32.264160 35,000 100 554 0
2020-09-30 13:24:54 GMT 40.600616 32.226807 35,000 100 554 0
2020-09-30 13:24:49 GMT 40.603188 32.208420 35,000 100 554 0
2020-09-30 13:24:43 GMT 40.605282 32.193249 35,000 100 554 0
2020-09-30 13:24:32 GMT 40.610321 32.156494 35,000 100 554 0
2020-09-30 13:24:24 GMT 40.614258 32.127930 35,000 100 555 0
2020-09-30 13:24:12 GMT 40.619759 32.088192 35,000 100 555 0
2020-09-30 13:24:01 GMT 40.626801 32.036926 35,000 100 555 0
2020-09-30 13:23:51 GMT 40.629303 32.018593 35,000 100 555 0
2020-09-30 13:23:46 GMT 40.631397 32.003426 35,000 100 556 0
2020-09-30 13:23:41 GMT 40.633713 31.986572 35,000 100 555 0
2020-09-30 13:23:34 GMT 40.636780 31.964294 35,000 100 556 0
2020-09-30 13:23:30 GMT 40.638615 31.950989 35,000 100 556 0
2020-09-30 13:23:20 GMT 40.643223 31.917719 35,000 100 557 0
2020-09-30 13:23:10 GMT 40.647858 31.884155 35,000 100 558 0
2020-09-30 13:23:06 GMT 40.650436 31.865534 35,000 100 558 0
2020-09-30 13:23:00 GMT 40.652664 31.849670 35,000 100 558 0
2020-09-30 13:22:52 GMT 40.656235 31.823853 35,000 100 558 0
2020-09-30 13:22:49 GMT 40.657608 31.813910 35,000 100 558 0
2020-09-30 13:22:39 GMT 40.662357 31.779888 35,000 100 559 0
2020-09-30 13:22:29 GMT 40.666946 31.746643 35,000 100 559 0
2020-09-30 13:22:17 GMT 40.672577 31.706299 35,000 100 560 0
2020-09-30 13:22:08 GMT 40.677063 31.674561 35,000 100 560 0
2020-09-30 13:21:58 GMT 40.681675 31.641935 35,000 100 560 0
2020-09-30 13:21:48 GMT 40.686562 31.607479 35,000 100 561 0
2020-09-30 13:21:36 GMT 40.691872 31.569838 35,000 100 562 0
2020-09-30 13:21:26 GMT 40.696564 31.536316 35,000 100 563 0
2020-09-30 13:21:16 GMT 40.701553 31.500923 35,000 100 565 0
2020-09-30 13:21:06 GMT 40.706348 31.466091 35,000 100 566 0
2020-09-30 13:20:56 GMT 40.710724 31.433571 35,000 99 570 0
2020-09-30 13:20:46 GMT 40.715332 31.397552 35,000 98 571 -64
2020-09-30 13:20:34 GMT 40.719727 31.356506 34,975 97 573 640
2020-09-30 13:20:25 GMT 40.722549 31.326515 34,825 97 572 960
2020-09-30 13:20:15 GMT 40.726227 31.291138 34,675 98 571 1024
2020-09-30 13:20:04 GMT 40.729660 31.255615 34,500 96 571 960
2020-09-30 13:19:54 GMT 40.732601 31.219524 34,350 96 569 960
2020-09-30 13:19:43 GMT 40.735722 31.180759 34,150 95 568 1024
2020-09-30 13:19:33 GMT 40.737350 31.148300 33,950 91 569 1472
2020-09-30 13:19:26 GMT 40.737396 31.122620 33,750 88 570 1600
2020-09-30 13:19:23 GMT 40.737072 31.112221 33,675 86 571 1600
2020-09-30 13:19:13 GMT 40.734371 31.077639 33,400 80 573 1664
2020-09-30 13:19:06 GMT 40.730881 31.052607 33,200 77 573 1664
2020-09-30 13:19:02 GMT 40.728645 31.040121 33,100 75 574 1600
2020-09-30 13:18:52 GMT 40.721336 31.006975 32,825 72 574 1664
2020-09-30 13:18:42 GMT 40.713238 30.972706 32,075 75 574 1408
2020-09-30 13:18:36 GMT 40.708786 30.948975 32,400 79 572 1216
2020-09-30 13:18:30 GMT 40.706535 30.931570 32,300 82 572 1280
2020-09-30 13:18:25 GMT 40.705372 30.914467 32,175 87 571 1344
2020-09-30 13:18:19 GMT 40.705170 30.896362 32,075 97 566 1472
2020-09-30 13:18:16 GMT 40.705582 30.885620 32,000 94 568 1472
2020-09-30 13:18:09 GMT 40.708328 30.859314 31,800 102 563 1408
2020-09-30 13:18:03 GMT 40.711887 30.840683 31,675 106 560 1344
2020-09-30 13:17:55 GMT 40.723801 30.802673 31,350 116 550 1728
2020-09-30 13:17:47 GMT 40.729477 30.787781 31,225 116 550 1600
2020-09-30 13:17:44 GMT 40.732224 30.780701 31,150 116 549 1536
2020-09-30 13:17:36 GMT 40.740875 30.758118 30,975 116 547 1344
2020-09-30 13:17:27 GMT 40.750992 30.731873 30,750 116 546 1536
2020-09-30 13:17:22 GMT 40.759323 30.710205 30,550 116 545 1728
2020-09-30 13:17:17 GMT 40.762756 30.701233 30,475 116 545 1856
2020-09-30 13:17:12 GMT 40.768028 30.687374 30,325 116 545 2112
2020-09-30 13:17:06 GMT 40.774292 30.671021 30,100 116 546 2304
2020-09-30 13:16:59 GMT 40.782692 30.648985 29,825 116 546 2432
2020-09-30 13:16:56 GMT 40.785954 30.640432 29,700 116 546 2368
2020-09-30 13:16:52 GMT 40.790359 30.628967 29,550 116 547 2240
2020-09-30 13:16:46 GMT 40.797775 30.609497 29,200 116 547 2112
2020-09-30 13:16:43 GMT 40.802170 30.598022 29,175 116 547 1984
2020-09-30 13:16:35 GMT 40.811138 30.574514 28,950 116 545 1536
2020-09-30 13:16:24 GMT 40.822075 30.545986 28,650 116 542 1600
2020-09-30 13:16:20 GMT 40.827530 30.531738 28,575 116 541 1728
2020-09-30 13:16:15 GMT 40.833061 30.517147 28,250 116 540 1856
2020-09-30 13:16:12 GMT 40.837601 30.505188 28,300 116 540 1920
2020-09-30 13:16:04 GMT 40.844421 30.487310 28,100 116 539 1920
2020-09-30 13:16:01 GMT 40.849411 30.474182 27,950 116 537 1920
2020-09-30 13:15:53 GMT 40.857010 30.454224 27,750 116 537 1728
2020-09-30 13:15:49 GMT 40.861320 30.442989 27,650 116 535 1664
2020-09-30 13:15:44 GMT 40.867603 30.426449 27,400 116 532 1920
2020-09-30 13:15:40 GMT 40.872074 30.414713 27,350 116 532 1920
2020-09-30 13:15:33 GMT 40.879166 30.396118 27,125 116 530 1920
2020-09-30 13:15:30 GMT 40.883385 30.384937 27,025 116 529 1920
2020-09-30 13:15:22 GMT 40.892323 30.361467 26,775 116 527 1920
2020-09-30 13:15:19 GMT 40.895069 30.354225 26,675 116 527 1920
2020-09-30 13:15:13 GMT 40.901680 30.336748 26,450 116 523 1792
2020-09-30 13:15:09 GMT 40.906197 30.324825 26,375 116 524 1792
2020-09-30 13:15:02 GMT 40.912949 30.307068 25,850 116 521 1856
2020-09-30 13:14:59 GMT 40.917274 30.295673 26,075 116 521 1856
2020-09-30 13:14:50 GMT 40.929100 30.264338 25,700 116 518 2048
2020-09-30 13:14:42 GMT 40.935196 30.248291 25,500 116 517 2048
2020-09-30 13:14:37 GMT 40.939621 30.236561 25,350 116 516 2176
2020-09-30 13:14:31 GMT 40.946045 30.219543 25,150 116 514 2176
2020-09-30 13:14:28 GMT 40.949677 30.210030 25,025 116 513 2176
2020-09-30 13:14:21 GMT 40.956890 30.190804 24,775 116 511 2112
2020-09-30 13:14:18 GMT 40.961269 30.179193 24,625 116 511 1984
2020-09-30 13:14:11 GMT 40.967789 30.161865 24,425 116 508 1984
2020-09-30 13:14:07 GMT 40.971954 30.150757 24,300 116 507 2048
2020-09-30 13:14:00 GMT 40.978500 30.133362 24,075 116 505 2240
2020-09-30 13:13:56 GMT 40.983398 30.120300 23,900 116 504 2304
2020-09-30 13:13:50 GMT 40.989338 30.104473 23,675 116 502 2240
2020-09-30 13:13:47 GMT 40.993435 30.093426 23,525 116 501 2112
2020-09-30 13:13:39 GMT 41.000244 30.075195 23,300 116 500 2112
2020-09-30 13:13:36 GMT 41.003910 30.065210 23,175 116 498 2112
2020-09-30 13:13:29 GMT 41.010612 30.047234 22,925 115 495 2240
2020-09-30 13:13:26 GMT 41.014103 30.037621 22,800 115 495 2176
2020-09-30 13:13:15 GMT 41.029541 29.995544 22,300 115 489 1856
2020-09-30 13:13:06 GMT 41.033237 29.985373 22,175 115 487 2112
2020-09-30 13:13:00 GMT 41.039658 29.967529 21,925 115 485 2432
2020-09-30 13:12:56 GMT 41.043320 29.957275 21,775 115 484 2496
2020-09-30 13:12:46 GMT 41.052975 29.930128 21,375 114 482 2048
2020-09-30 13:12:35 GMT 41.068199 29.885809 20,800 113 475 2240
2020-09-30 13:12:26 GMT 41.071877 29.874823 20,650 113 473 2432
2020-09-30 13:12:19 GMT 41.077507 29.857656 20,375 113 471 2496
2020-09-30 13:12:15 GMT 41.080582 29.848206 20,225 113 470 2560
2020-09-30 13:12:05 GMT 41.089554 29.820984 19,800 112 468 2304
2020-09-30 13:11:55 GMT 41.097427 29.794434 19,325 109 465 2112
2020-09-30 13:11:51 GMT 41.102051 29.777710 19,225 110 462 2176
2020-09-30 13:11:45 GMT 41.105484 29.765808 19,050 111 459 2432
2020-09-30 13:11:39 GMT 41.109257 29.753223 18,850 111 458 2496
2020-09-30 13:11:34 GMT 41.113400 29.738680 18,625 109 457 2496
2020-09-30 13:11:23 GMT 41.119537 29.711609 18,175 103 456 2560
2020-09-30 13:11:13 GMT 41.123268 29.683622 17,750 95 455 2432
2020-09-30 13:11:04 GMT 41.125168 29.637939 17,275 92 452 2816
2020-09-30 13:10:59 GMT 41.125168 29.637939 17,025 92 450 2752
2020-09-30 13:10:52 GMT 41.125549 29.624821 16,800 92 448 2752
2020-09-30 13:10:47 GMT 41.126015 29.607718 16,500 92 446 2816
2020-09-30 13:10:42 GMT 41.126343 29.596355 16,300 92 444 2752
2020-09-30 13:10:36 GMT 41.126945 29.577255 16,000 92 441 2752
2020-09-30 13:10:31 GMT 41.127228 29.568329 15,825 92 440 2752
2020-09-30 13:10:21 GMT 41.128372 29.540344 15,425 93 435 2688
2020-09-30 13:10:11 GMT 41.129414 29.514084 14,900 92 431 2880
2020-09-30 13:10:02 GMT 41.129974 29.490051 14,450 89 428 2688
2020-09-30 13:09:59 GMT 41.129929 29.483337 14,350 88 427 2624
2020-09-30 13:09:49 GMT 41.128483 29.456905 13,850 83 422 3072
2020-09-30 13:09:41 GMT 41.126358 29.433533 13,375 82 420 3264
2020-09-30 13:09:38 GMT 41.125900 29.428589 13,275 82 420 3264
2020-09-30 13:09:31 GMT 41.124153 29.410213 12,600 83 415 2752
2020-09-30 13:09:28 GMT 41.123596 29.403971 12,600 83 415 2752
2020-09-30 13:09:21 GMT 41.121780 29.384399 12,425 83 412 2496
2020-09-30 13:09:14 GMT 41.119629 29.360046 12,075 83 406 1856
2020-09-30 13:09:11 GMT 41.119453 29.357903 12,050 83 405 1792
2020-09-30 13:09:08 GMT 41.118942 29.352173 11,975 83 403 1728
2020-09-30 13:09:00 GMT 41.117310 29.333683 11,675 83 392 1792
2020-09-30 13:08:57 GMT 41.116657 29.326380 11,675 83 392 1856
2020-09-30 13:08:50 GMT 41.114822 29.305237 11,425 83 384 1728
2020-09-30 13:08:47 GMT 41.114563 29.302097 11,375 83 383 1728
2020-09-30 13:08:38 GMT 41.112934 29.281687 11,150 83 371 1344
2020-09-30 13:08:28 GMT 41.110981 29.258839 10,950 82 358 960
2020-09-30 13:08:19 GMT 41.109070 29.239862 10,725 79 343 1088
2020-09-30 13:08:16 GMT 41.108326 29.233620 10,725 79 343 1088
2020-09-30 13:08:06 GMT 41.104927 29.213207 10,250 73 322 2496
2020-09-30 13:07:59 GMT 41.101856 29.199038 10,275 73 322 2432
2020-09-30 13:07:55 GMT 41.100552 29.193544 10,200 72 321 2560
2020-09-30 13:07:48 GMT 41.097061 29.178650 9,800 72 318 2688
2020-09-30 13:07:38 GMT 41.092777 29.160585 9,075 72 311 2688
2020-09-30 13:07:35 GMT 41.091385 29.154724 9,250 72 314 2624
2020-09-30 13:07:27 GMT 41.088318 29.141602 8,850 72 309 2752
2020-09-30 13:07:24 GMT 41.087051 29.136179 8,800 73 309 2752
2020-09-30 13:07:18 GMT 41.084015 29.122986 8,450 73 305 2816
2020-09-30 13:07:14 GMT 41.082687 29.116943 8,300 73 305 2752
2020-09-30 13:07:07 GMT 41.079601 29.103346 7,825 73 300 2688
2020-09-30 13:07:03 GMT 41.078533 29.098600 7,850 73 300 2688
2020-09-30 13:06:57 GMT 41.074249 29.079811 7,375 72 293 2944
2020-09-30 13:06:54 GMT 41.074249 29.079811 7,375 72 293 2944
2020-09-30 13:06:46 GMT 41.071365 29.067451 7,100 72 293 2880
2020-09-30 13:06:43 GMT 41.070328 29.062866 6,475 72 290 3264
2020-09-30 13:06:36 GMT 41.066940 29.048412 6,375 72 290 3264
2020-09-30 13:06:33 GMT 41.066288 29.045668 6,375 72 289 3200
2020-09-30 13:06:25 GMT 41.062088 29.028259 5,925 71 286 2944
2020-09-30 13:06:22 GMT 41.062088 29.028259 5,850 71 286 2944
2020-09-30 13:06:15 GMT 41.058792 29.015808 5,400 67 284 2688
2020-09-30 13:06:12 GMT 41.057281 29.010803 5,350 67 284 2624
2020-09-30 13:06:05 GMT 41.052322 28.997663 4,975 59 279 2752
2020-09-30 13:06:01 GMT 41.051010 28.994751 4,200 58 272 1856
2020-09-30 13:05:55 GMT 41.046066 28.984253 4,575 58 277 2688
2020-09-30 13:05:50 GMT 41.039707 28.970573 4,200 58 272 1856
2020-09-30 13:05:44 GMT 41.039055 28.969137 4,175 58 272 1856
2020-09-30 13:05:40 GMT 41.036728 28.964172 4,075 58 267 1472
2020-09-30 13:05:34 GMT 41.032959 28.955967 3,925 58 259 1280
2020-09-30 13:05:30 GMT 41.030445 28.950474 3,850 58 255 1344
2020-09-30 13:05:24 GMT 41.025879 28.940552 3,700 58 247 1216
2020-09-30 13:05:20 GMT 41.024460 28.937439 3,650 58 242 1408
2020-09-30 13:05:12 GMT 41.019691 28.927128 3,425 58 235 1216
2020-09-30 13:05:09 GMT 41.018063 28.923632 3,175 58 215 1344
2020-09-30 13:05:03 GMT 41.014572 28.916016 3,300 58 222 1216
2020-09-30 13:04:59 GMT 41.012421 28.911316 3,200 58 216 1408
2020-09-30 13:04:54 GMT 41.009590 28.905216 3,075 58 210 896
2020-09-30 13:04:51 GMT 41.008026 28.901855 3,050 58 205 832
2020-09-30 13:04:44 GMT 41.002140 28.888987 2,850 58 195 1472
2020-09-30 13:04:38 GMT 41.002140 28.888987 2,775 58 192 1600
2020-09-30 13:04:31 GMT 40.998962 28.882141 2,575 59 189 2112
2020-09-30 13:04:28 GMT 40.997452 28.878784 2,500 59 188 2176
2020-09-30 13:04:17 GMT 40.992783 28.868574 2,175 58 187 1728
2020-09-30 13:04:10 GMT 40.989304 28.860962 1,825 59 184 2496
2020-09-30 13:03:56 GMT 40.983444 28.848267 1,325 57 179 2880
2020-09-30 13:03:49 GMT 40.980122 28.841358 825 58 182 3968
2020-09-30 13:03:45 GMT 40.978539 28.837925 600 59 188 2944
2020-09-30 13:03:35 GMT 40.974014 28.828003 225 58 175 384
2020-09-30 13:03:28 GMT 40.971371 28.822321 225 58 148 64
2020-09-30 13:03:24 GMT 40.970020 28.819448 225 58 125 0
2020-09-30 13:03:18 GMT 40.968155 28.815369 225 58 100 -64
2020-09-30 13:03:14 GMT 40.967365 28.813675 0 59 80
2020-09-30 13:03:08 GMT 40.966358 28.811523 0 59 47
2020-09-30 13:03:03 GMT 40.965958 28.810646 0 59 18
2020-09-30 13:02:39 GMT 40.965878 28.810444 0 59 0
2020-09-30 13:02:29 GMT 40.965866 28.810444 0 59 0
2020-09-30 13:02:05 GMT 40.965866 28.810440 0 59 0
2020-09-30 13:01:55 GMT 40.965878 28.810444 0 59 0
2020-09-30 13:01:50 GMT 40.965866 28.810440 0 59 0
2020-09-30 13:01:44 GMT 40.965866 28.810444 0 59 0
2020-09-30 13:01:36 GMT 40.965866 28.810440 0 59 0
2020-09-30 13:01:28 GMT 40.965866 28.810444 0 59 0
2020-09-30 13:01:25 GMT 40.965866 28.810429 0 59 3
2020-09-30 13:01:21 GMT 40.965843 28.810379 0 59 5
2020-09-30 13:01:14 GMT 40.965729 28.810226 0 84 5
2020-09-30 13:01:10 GMT 40.965668 28.810131 0 106 5
2020-09-30 13:01:04 GMT 40.965656 28.809944 0 135 6
2020-09-30 13:00:59 GMT 40.965736 28.809805 0 149 9
2020-09-30 13:00:55 GMT 40.965946 28.809662 0 149 11
2020-09-30 13:00:44 GMT 40.966343 28.809336 0 149 10
2020-09-30 13:00:38 GMT 40.966553 28.809179 0 154 9
2020-09-30 13:00:34 GMT 40.966690 28.809071 0 163 8
2020-09-30 13:00:29 GMT 40.966831 28.808977 0 180 7
2020-09-30 13:00:23 GMT 40.966984 28.808914 0 213 6
2020-09-30 13:00:14 GMT 40.967251 28.809296 0 239 19
2020-09-30 13:00:07 GMT 40.967564 28.809944 0 239 21
2020-09-30 13:00:03 GMT 40.967819 28.810492 0 239 21
2020-09-30 12:59:52 GMT 40.968319 28.811552 0 239 22
2020-09-30 12:59:47 GMT 40.968590 28.812145 0 239 22
2020-09-30 12:59:40 GMT 40.968967 28.812973 0 239 23
2020-09-30 12:59:32 GMT 40.969414 28.813955 0 239 23
2020-09-30 12:59:21 GMT 40.969975 28.815157 0 239 24
2020-09-30 12:59:16 GMT 40.970276 28.815811 0 239 23
2020-09-30 12:59:11 GMT 40.970531 28.816359 0 239 22
2020-09-30 12:59:08 GMT 40.970821 28.816967 0 239 21
2020-09-30 12:59:00 GMT 40.971085 28.817535 0 239 21
2020-09-30 12:58:51 GMT 40.971542 28.818542 0 239 19
2020-09-30 12:58:45 GMT 40.971863 28.819199 0 239 18
2020-09-30 12:58:40 GMT 40.972008 28.819527 0 239 17
2020-09-30 12:58:34 GMT 40.972240 28.820038 0 239 16
2020-09-30 12:58:29 GMT 40.972435 28.820450 0 239 16
2020-09-30 12:58:23 GMT 40.972698 28.821045 0 239 14
2020-09-30 12:58:19 GMT 40.972767 28.821165 0 239 14
2020-09-30 12:58:10 GMT 40.973087 28.821869 0 239 12
2020-09-30 12:57:59 GMT 40.973335 28.822412 0 239 10
2020-09-30 12:57:49 GMT 40.973557 28.822897 0 239 8
2020-09-30 12:57:39 GMT 40.973766 28.823351 0 239 5
2020-09-30 12:57:31 GMT 40.973797 28.823425 0 236 0
2020-09-30 12:57:18 GMT 40.973843 28.823517 0 236 0
2020-09-30 12:57:13 GMT 40.973854 28.823517 0 236 0
2020-09-30 12:57:03 GMT 40.973843 28.823517 0 236 0
2020-09-30 12:56:54 GMT 40.973854 28.823517 0 236 0
2020-09-30 12:56:48 GMT 40.973843 28.823517 0 236 0
2020-09-30 12:56:24 GMT 40.973846 28.823521 0 236 0
2020-09-30 12:56:13 GMT 40.973854 28.823517 0 236 0
2020-09-30 12:55:48 GMT 40.973854 28.823532 0 236 0
2020-09-30 12:55:18 GMT 40.973846 28.823521 0 236 0
2020-09-30 12:55:13 GMT 40.973854 28.823532 0 236 0
2020-09-30 12:55:03 GMT 40.973846 28.823521 0 236 0
2020-09-30 12:54:59 GMT 40.973854 28.823532 0 236 0
2020-09-30 12:54:47 GMT 40.973846 28.823521 0 236 1
2020-09-30 12:54:44 GMT 40.973854 28.823532 0 236 0
2020-09-30 12:54:34 GMT 40.973820 28.823425 0 241 3
2020-09-30 12:54:22 GMT 40.973808 28.823273 0 255 3
2020-09-30 12:54:14 GMT 40.973839 28.823116 0 267 3
2020-09-30 12:54:11 GMT 40.973831 28.823090 0 267 3
2020-09-30 12:54:03 GMT 40.973873 28.822960 0 278 3
2020-09-30 12:53:59 GMT 40.973911 28.822891 0 286 3
2020-09-30 12:53:53 GMT 40.973946 28.822830 0 292 3
2020-09-30 12:53:46 GMT 40.974014 28.822754 0 300 3
2020-09-30 12:53:42 GMT 40.974037 28.822723 0 306 3
2020-09-30 12:53:38 GMT 40.974079 28.822680 0 309 4
2020-09-30 12:53:33 GMT 40.974152 28.822617 0 317 4
2020-09-30 12:53:29 GMT 40.974232 28.822571 0 323 4
2020-09-30 12:53:22 GMT 40.974289 28.822525 0 326 4
2020-09-30 12:53:16 GMT 40.974373 28.822475 0 329 3
2020-09-30 12:53:04 GMT 40.974449 28.822403 0 329 0
2020-09-30 12:52:56 GMT 40.974453 28.822397 0 329 0
2020-09-30 12:52:44 GMT 40.974461 28.822403 0 329 0
2020-09-30 12:52:39 GMT 40.974461 28.822388 0 329 0
2020-09-30 12:52:35 GMT 40.974449 28.822403 0 329 0
2020-09-30 12:52:04 GMT 40.974453 28.822397 0 329 0

Making use of Plane Finder data

You are free to use the raw flight data, aircraft information and images provided in this report for your own purposes provided the data is correctly attributed to Plane Finder. We ask that you please credit Plane Finder and link to planefinder.net in close proximity to the content.

Optionally one of the following logos (no smaller then 150x24px) can be used and must link to planefinder.net

Embedding the Plane Finder map

You are welcome to embed the Plane Finder playback map on your website to offer visitors a more interactive experience. We suggest using the following HTML code:

<iframe src="//planefinder.net/data/report/TK6562-TC-ACR-7700-squawk-2020-09-30/map" width="800" height="600" seamless="seamless"></iframe>

Where our data comes from

Plane Finder has a global network of data feeds and antenna radars that receive data broadcast directly from aircraft. The primary technologies used are ADS-B and MLAT. We also show feeds from the FAA and a FLARM glider feed.

Click here to find out more about the Plane Finder network.

How we collect our data